sensor_id;sensor_type;location;lat;lon;timestamp;pressure;altitude;pressure_sealevel;temperature;humidity
16580;BME280;8402;51.466;6.806;2023-11-21T00:00:25;100751.44;;;9.54;100.00
16580;BME280;8402;51.466;6.806;2023-11-21T00:02:55;100759.56;;;9.54;100.00
16580;BME280;8402;51.466;6.806;2023-11-21T00:05:25;100763.88;;;9.55;100.00
16580;BME280;8402;51.466;6.806;2023-11-21T00:07:55;100754.63;;;9.56;100.00
16580;BME280;8402;51.466;6.806;2023-11-21T00:10:27;100765.47;;;9.56;100.00
16580;BME280;8402;51.466;6.806;2023-11-21T00:12:57;100763.06;;;9.55;100.00
16580;BME280;8402;51.466;6.806;2023-11-21T00:15:29;100753.97;;;9.51;100.00
16580;BME280;8402;51.466;6.806;2023-11-21T00:17:59;100757.47;;;9.51;100.00
16580;BME280;8402;51.466;6.806;2023-11-21T00:20:29;100771.03;;;9.51;100.00
16580;BME280;8402;51.466;6.806;2023-11-21T00:22:59;100775.34;;;9.52;100.00
16580;BME280;8402;51.466;6.806;2023-11-21T00:25:32;100777.41;;;9.55;100.00
16580;BME280;8402;51.466;6.806;2023-11-21T00:28:02;100770.88;;;9.56;100.00
16580;BME280;8402;51.466;6.806;2023-11-21T00:30:32;100767.09;;;9.57;100.00
16580;BME280;8402;51.466;6.806;2023-11-21T00:33:02;100770.88;;;9.56;100.00
16580;BME280;8402;51.466;6.806;2023-11-21T00:35:32;100765.47;;;9.56;100.00
16580;BME280;8402;51.466;6.806;2023-11-21T00:38:02;100768.50;;;9.55;100.00
16580;BME280;8402;51.466;6.806;2023-11-21T00:40:35;100766.91;;;9.54;100.00
16580;BME280;8402;51.466;6.806;2023-11-21T00:43:05;100770.72;;;9.53;100.00
16580;BME280;8402;51.466;6.806;2023-11-21T00:45:35;100779.16;;;9.51;100.00
16580;BME280;8402;51.466;6.806;2023-11-21T00:48:07;100772.72;;;9.47;100.00
16580;BME280;8402;51.466;6.806;2023-11-21T00:50:37;100769.06;;;9.43;100.00
16580;BME280;8402;51.466;6.806;2023-11-21T00:53:06;100773.16;;;9.41;100.00
16580;BME280;8402;51.466;6.806;2023-11-21T00:55:40;100772.34;;;9.40;100.00
16580;BME280;8402;51.466;6.806;2023-11-21T00:58:10;100773.94;;;9.41;100.00
16580;BME280;8402;51.466;6.806;2023-11-21T01:00:40;100777.19;;;9.43;100.00
16580;BME280;8402;51.466;6.806;2023-11-21T01:03:10;100769.53;;;9.45;100.00
16580;BME280;8402;51.466;6.806;2023-11-21T01:05:40;100780.38;;;9.45;100.00
16580;BME280;8402;51.466;6.806;2023-11-21T01:08:11;100782.28;;;9.45;100.00
16580;BME280;8402;51.466;6.806;2023-11-21T01:10:44;100784.19;;;9.44;100.00
16580;BME280;8402;51.466;6.806;2023-11-21T01:13:16;100780.38;;;9.45;100.00
16580;BME280;8402;51.466;6.806;2023-11-21T01:15:46;100791.22;;;9.45;100.00
16580;BME280;8402;51.466;6.806;2023-11-21T01:18:16;100789.59;;;9.44;100.00
16580;BME280;8402;51.466;6.806;2023-11-21T01:20:46;100792.81;;;9.46;100.00
16580;BME280;8402;51.466;6.806;2023-11-21T01:23:16;100796.00;;;9.48;100.00
16580;BME280;8402;51.466;6.806;2023-11-21T01:25:49;100796.78;;;9.49;100.00
16580;BME280;8402;51.466;6.806;2023-11-21T01:28:19;100794.88;;;9.49;100.00
16580;BME280;8402;51.466;6.806;2023-11-21T01:30:49;100806.03;;;9.48;100.00
16580;BME280;8402;51.466;6.806;2023-11-21T01:33:19;100801.41;;;9.48;100.00
16580;BME280;8402;51.466;6.806;2023-11-21T01:35:52;100807.63;;;9.49;100.00
16580;BME280;8402;51.466;6.806;2023-11-21T01:38:22;100810.06;;;9.50;100.00
16580;BME280;8402;51.466;6.806;2023-11-21T01:40:55;100800.81;;;9.51;100.00
16580;BME280;8402;51.466;6.806;2023-11-21T01:43:27;100809.44;;;9.53;100.00
16580;BME280;8402;51.466;6.806;2023-11-21T01:45:58;100805.63;;;9.54;100.00
16580;BME280;8402;51.466;6.806;2023-11-21T01:48:28;100807.22;;;9.55;100.00
16580;BME280;8402;51.466;6.806;2023-11-21T01:50:59;100805.63;;;9.54;100.00
16580;BME280;8402;51.466;6.806;2023-11-21T01:53:28;100804.03;;;9.53;100.00
16580;BME280;8402;51.466;6.806;2023-11-21T01:56:01;100810.53;;;9.52;100.00
16580;BME280;8402;51.466;6.806;2023-11-21T01:58:31;100813.25;;;9.52;100.00
16580;BME280;8402;51.466;6.806;2023-11-21T02:01:01;100816.44;;;9.54;100.00
16580;BME280;8402;51.466;6.806;2023-11-21T02:03:32;100814.22;;;9.56;100.00
16580;BME280;8402;51.466;6.806;2023-11-21T02:06:02;100809.81;;;9.60;100.00
16580;BME280;8402;51.466;6.806;2023-11-21T02:08:32;100810.31;;;9.62;100.00
16580;BME280;8402;51.466;6.806;2023-11-21T02:11:07;100817.03;;;9.65;100.00
16580;BME280;8402;51.466;6.806;2023-11-21T02:13:40;100822.94;;;9.67;100.00
16580;BME280;8402;51.466;6.806;2023-11-21T02:16:12;100828.84;;;9.69;100.00
16580;BME280;8402;51.466;6.806;2023-11-21T02:18:42;100826.94;;;9.70;100.00
16580;BME280;8402;51.466;6.806;2023-11-21T02:21:14;100830.16;;;9.72;100.00
16580;BME280;8402;51.466;6.806;2023-11-21T02:23:48;100826.34;;;9.73;100.00
16580;BME280;8402;51.466;6.806;2023-11-21T02:26:18;100830.66;;;9.74;100.00
16580;BME280;8402;51.466;6.806;2023-11-21T02:28:48;100831.47;;;9.74;100.00
16580;BME280;8402;51.466;6.806;2023-11-21T02:31:20;100839.59;;;9.74;100.00
16580;BME280;8402;51.466;6.806;2023-11-21T02:33:50;100838.31;;;9.72;100.00
16580;BME280;8402;51.466;6.806;2023-11-21T02:36:20;100835.59;;;9.72;100.00
16580;BME280;8402;51.466;6.806;2023-11-21T02:38:53;100838.00;;;9.73;100.00
16580;BME280;8402;51.466;6.806;2023-11-21T02:41:23;100834.47;;;9.73;100.00
16580;BME280;8402;51.466;6.806;2023-11-21T02:43:52;100832.25;;;9.75;100.00
16580;BME280;8402;51.466;6.806;2023-11-21T02:46:22;100834.66;;;9.76;100.00
16580;BME280;8402;51.466;6.806;2023-11-21T02:48:53;100834.66;;;9.76;100.00
16580;BME280;8402;51.466;6.806;2023-11-21T02:51:24;100834.47;;;9.73;100.00
16580;BME280;8402;51.466;6.806;2023-11-21T02:53:57;100836.66;;;9.71;100.00
16580;BME280;8402;51.466;6.806;2023-11-21T02:56:29;100842.09;;;9.71;100.00
16580;BME280;8402;51.466;6.806;2023-11-21T02:59:00;100836.66;;;9.71;100.00
16580;BME280;8402;51.466;6.806;2023-11-21T03:01:30;100842.09;;;9.71;100.00
16580;BME280;8402;51.466;6.806;2023-11-21T03:04:00;100841.28;;;9.70;100.00
16580;BME280;8402;51.466;6.806;2023-11-21T03:06:30;100850.72;;;9.73;100.00
16580;BME280;8402;51.466;6.806;2023-11-21T03:09:03;100853.94;;;9.75;100.00
16580;BME280;8402;51.466;6.806;2023-11-21T03:11:33;100852.81;;;9.76;100.00
16580;BME280;8402;51.466;6.806;2023-11-21T03:14:03;100858.25;;;9.76;100.00
16580;BME280;8402;51.466;6.806;2023-11-21T03:16:33;100850.72;;;9.73;100.00
16580;BME280;8402;51.466;6.806;2023-11-21T03:19:05;100853.94;;;9.75;100.00
16580;BME280;8402;51.466;6.806;2023-11-21T03:21:35;100856.53;;;9.80;100.00
16580;BME280;8402;51.466;6.806;2023-11-21T03:24:08;100857.81;;;9.82;100.00
16580;BME280;8402;51.466;6.806;2023-11-21T03:26:38;100860.22;;;9.84;100.00
16580;BME280;8402;51.466;6.806;2023-11-21T03:29:08;100861.34;;;9.83;100.00
16580;BME280;8402;51.466;6.806;2023-11-21T03:31:38;100863.25;;;9.82;100.00
16580;BME280;8402;51.466;6.806;2023-11-21T03:34:11;100871.38;;;9.82;100.00
16580;BME280;8402;51.466;6.806;2023-11-21T03:36:41;100872.97;;;9.83;100.00
16580;BME280;8402;51.466;6.806;2023-11-21T03:39:15;100882.41;;;9.86;100.00
16580;BME280;8402;51.466;6.806;2023-11-21T03:41:45;100887.00;;;9.85;100.00
16580;BME280;8402;51.466;6.806;2023-11-21T03:44:15;100882.41;;;9.86;100.00
16580;BME280;8402;51.466;6.806;2023-11-21T03:46:45;100891.63;;;9.85;100.00
16580;BME280;8402;51.466;6.806;2023-11-21T03:49:15;100886.22;;;9.85;100.00
16580;BME280;8402;51.466;6.806;2023-11-21T03:51:45;100896.56;;;9.83;100.00
16580;BME280;8402;51.466;6.806;2023-11-21T03:54:18;100897.69;;;9.82;100.00
16580;BME280;8402;51.466;6.806;2023-11-21T03:56:48;100897.38;;;9.83;100.00
16580;BME280;8402;51.466;6.806;2023-11-21T03:59:19;100896.25;;;9.84;100.00
16580;BME280;8402;51.466;6.806;2023-11-21T04:01:51;100902.47;;;9.85;100.00
16580;BME280;8402;51.466;6.806;2023-11-21T04:04:21;100905.69;;;9.87;100.00
16580;BME280;8402;51.466;6.806;2023-11-21T04:06:51;100903.47;;;9.89;100.00
16580;BME280;8402;51.466;6.806;2023-11-21T04:09:24;100906.69;;;9.91;100.00
16580;BME280;8402;51.466;6.806;2023-11-21T04:11:55;100914.22;;;9.94;100.00
16580;BME280;8402;51.466;6.806;2023-11-21T04:14:25;100912.31;;;9.95;100.00
16580;BME280;8402;51.466;6.806;2023-11-21T04:16:55;100902.25;;;9.95;100.00
16580;BME280;8402;51.466;6.806;2023-11-21T04:19:25;100909.28;;;9.96;100.00
16580;BME280;8402;51.466;6.806;2023-11-21T04:21:55;100909.28;;;9.96;100.00
16580;BME280;8402;51.466;6.806;2023-11-21T04:24:27;100908.50;;;9.96;100.00
16580;BME280;8402;51.466;6.806;2023-11-21T04:26:59;100907.69;;;9.95;100.00
16580;BME280;8402;51.466;6.806;2023-11-21T04:29:29;100911.50;;;9.94;100.00
16580;BME280;8402;51.466;6.806;2023-11-21T04:31:59;100920.13;;;9.96;100.00
16580;BME280;8402;51.466;6.806;2023-11-21T04:34:29;100907.69;;;9.95;100.00
16580;BME280;8402;51.466;6.806;2023-11-21T04:36:59;100909.91;;;9.93;100.00
16580;BME280;8402;51.466;6.806;2023-11-21T04:39:32;100912.09;;;9.91;100.00
16580;BME280;8402;51.466;6.806;2023-11-21T04:42:03;100917.53;;;9.91;100.00
16580;BME280;8402;51.466;6.806;2023-11-21T04:44:35;100921.34;;;9.90;100.00
16580;BME280;8402;51.466;6.806;2023-11-21T04:47:07;100922.75;;;9.87;100.00
16580;BME280;8402;51.466;6.806;2023-11-21T04:49:39;100931.69;;;9.88;100.00
16580;BME280;8402;51.466;6.806;2023-11-21T04:52:10;100919.75;;;9.89;100.00
16580;BME280;8402;51.466;6.806;2023-11-21T04:54:42;100938.41;;;9.90;100.00
16580;BME280;8402;51.466;6.806;2023-11-21T04:57:12;100943.50;;;9.92;100.00
16580;BME280;8402;51.466;6.806;2023-11-21T04:59:44;100939.19;;;9.91;100.00
16580;BME280;8402;51.466;6.806;2023-11-21T05:02:14;100939.81;;;9.88;100.00
16580;BME280;8402;51.466;6.806;2023-11-21T05:05:00;100943.94;;;9.85;100.00
16580;BME280;8402;51.466;6.806;2023-11-21T05:07:32;100943.13;;;9.85;100.00
16580;BME280;8402;51.466;6.806;2023-11-21T05:10:07;100944.25;;;9.84;100.00
16580;BME280;8402;51.466;6.806;2023-11-21T05:12:40;100944.84;;;9.81;100.00
16580;BME280;8402;51.466;6.806;2023-11-21T05:15:13;100943.25;;;9.80;100.00
16580;BME280;8402;51.466;6.806;2023-11-21T05:17:44;100949.25;;;9.77;100.00
16580;BME280;8402;51.466;6.806;2023-11-21T05:20:17;100946.88;;;9.75;100.00
16580;BME280;8402;51.466;6.806;2023-11-21T05:22:49;100952.09;;;9.72;100.00
16580;BME280;8402;51.466;6.806;2023-11-21T05:25:22;100966.72;;;9.71;100.00
16580;BME280;8402;51.466;6.806;2023-11-21T05:27:52;100954.28;;;9.70;100.00
16580;BME280;8402;51.466;6.806;2023-11-21T05:30:23;100966.72;;;9.71;100.00
16580;BME280;8402;51.466;6.806;2023-11-21T05:32:53;100967.53;;;9.71;100.00
16580;BME280;8402;51.466;6.806;2023-11-21T05:35:23;100978.38;;;9.71;100.00
16580;BME280;8402;51.466;6.806;2023-11-21T05:37:53;100981.06;;;9.71;100.00
16580;BME280;8402;51.466;6.806;2023-11-21T05:40:26;100988.41;;;9.71;100.00
16580;BME280;8402;51.466;6.806;2023-11-21T05:42:57;100991.72;;;9.68;100.00
16580;BME280;8402;51.466;6.806;2023-11-21T05:45:26;100989.03;;;9.68;100.00
16580;BME280;8402;51.466;6.806;2023-11-21T05:47:58;100991.25;;;9.65;100.00
16580;BME280;8402;51.466;6.806;2023-11-21T05:50:29;100990.72;;;9.63;100.00
16580;BME280;8402;51.466;6.806;2023-11-21T05:52:59;100989.13;;;9.62;100.00
16580;BME280;8402;51.466;6.806;2023-11-21T05:55:32;100998.84;;;9.63;100.00
16580;BME280;8402;51.466;6.806;2023-11-21T05:58:02;101008.69;;;9.59;100.00
16580;BME280;8402;51.466;6.806;2023-11-21T06:00:32;101006.28;;;9.58;100.00
16580;BME280;8402;51.466;6.806;2023-11-21T06:03:06;101010.91;;;9.57;100.00
16580;BME280;8402;51.466;6.806;2023-11-21T06:05:37;101017.72;;;9.55;100.00
16580;BME280;8402;51.466;6.806;2023-11-21T06:08:07;101026.13;;;9.53;100.00
16580;BME280;8402;51.466;6.806;2023-11-21T06:10:40;101029.16;;;9.52;100.00
16580;BME280;8402;51.466;6.806;2023-11-21T06:13:10;101026.75;;;9.50;100.00
16580;BME280;8402;51.466;6.806;2023-11-21T06:15:41;101030.53;;;9.49;100.00
16580;BME280;8402;51.466;6.806;2023-11-21T06:18:12;101031.56;;;9.53;100.00
16580;BME280;8402;51.466;6.806;2023-11-21T06:20:42;101039.38;;;9.55;100.00
16580;BME280;8402;51.466;6.806;2023-11-21T06:23:12;101039.06;;;9.56;100.00
16580;BME280;8402;51.466;6.806;2023-11-21T06:25:46;101038.00;;;9.57;100.00
16580;BME280;8402;51.466;6.806;2023-11-21T06:28:16;101048.22;;;9.60;100.00
16580;BME280;8402;51.466;6.806;2023-11-21T06:30:46;101046.63;;;9.59;100.00
16580;BME280;8402;51.466;6.806;2023-11-21T06:33:17;101054.25;;;9.57;100.00
16580;BME280;8402;51.466;6.806;2023-11-21T06:35:48;101053.41;;;9.57;100.00
16580;BME280;8402;51.466;6.806;2023-11-21T06:38:18;101057.84;;;9.53;100.00
16580;BME280;8402;51.466;6.806;2023-11-21T06:40:52;101060.25;;;9.54;100.00
16580;BME280;8402;51.466;6.806;2023-11-21T06:43:22;101063.47;;;9.56;100.00
16580;BME280;8402;51.466;6.806;2023-11-21T06:45:52;101069.69;;;9.57;100.00
16580;BME280;8402;51.466;6.806;2023-11-21T06:48:21;101072.91;;;9.59;100.00
16580;BME280;8402;51.466;6.806;2023-11-21T06:50:52;101071.50;;;9.61;100.00
16580;BME280;8402;51.466;6.806;2023-11-21T06:53:22;101081.22;;;9.62;100.00
16580;BME280;8402;51.466;6.806;2023-11-21T06:55:57;101086.06;;;9.65;100.00
16580;BME280;8402;51.466;6.806;2023-11-21T06:58:27;101093.28;;;9.70;100.00
16580;BME280;8402;51.466;6.806;2023-11-21T07:00:57;101093.50;;;9.74;100.00
16580;BME280;8402;51.466;6.806;2023-11-21T07:03:28;101099.91;;;9.78;100.00
16580;BME280;8402;51.466;6.806;2023-11-21T07:05:58;101102.03;;;9.81;100.00
16580;BME280;8402;51.466;6.806;2023-11-21T07:08:28;101108.25;;;9.81;100.00
16580;BME280;8402;51.466;6.806;2023-11-21T07:11:00;101109.88;;;9.82;100.00
16580;BME280;8402;51.466;6.806;2023-11-21T07:13:31;101112.56;;;9.82;100.00
16580;BME280;8402;51.466;6.806;2023-11-21T07:16:01;101113.69;;;9.81;100.00
16580;BME280;8402;51.466;6.806;2023-11-21T07:18:31;101114.19;;;9.83;100.00
16580;BME280;8402;51.466;6.806;2023-11-21T07:21:01;101107.66;;;9.84;100.00
16580;BME280;8402;51.466;6.806;2023-11-21T07:23:31;101113.88;;;9.85;100.00
16580;BME280;8402;51.466;6.806;2023-11-21T07:26:04;101113.88;;;9.85;100.00
16580;BME280;8402;51.466;6.806;2023-11-21T07:28:36;101115.50;;;9.86;100.00
16580;BME280;8402;51.466;6.806;2023-11-21T07:31:06;101112.28;;;9.84;100.00
16580;BME280;8402;51.466;6.806;2023-11-21T07:33:37;101109.25;;;9.85;100.00
16580;BME280;8402;51.466;6.806;2023-11-21T07:36:08;101120.31;;;9.89;100.00
16580;BME280;8402;51.466;6.806;2023-11-21T07:38:38;101122.72;;;9.90;100.00
16580;BME280;8402;51.466;6.806;2023-11-21T07:41:11;101128.63;;;9.92;100.00
16580;BME280;8402;51.466;6.806;2023-11-21T07:43:56;101132.19;;;9.93;100.00
16580;BME280;8402;51.466;6.806;2023-11-21T07:46:26;101133.78;;;9.94;100.00
16580;BME280;8402;51.466;6.806;2023-11-21T07:48:56;101136.19;;;9.96;100.00
16580;BME280;8402;51.466;6.806;2023-11-21T07:51:26;101138.59;;;9.97;100.00
16580;BME280;8402;51.466;6.806;2023-11-21T07:53:56;101143.44;;;10.00;100.00
16580;BME280;8402;51.466;6.806;2023-11-21T07:56:29;101143.94;;;10.02;100.00
16580;BME280;8402;51.466;6.806;2023-11-21T07:58:59;101150.34;;;10.06;100.00
16580;BME280;8402;51.466;6.806;2023-11-21T08:01:29;101159.28;;;10.07;100.00
16580;BME280;8402;51.466;6.806;2023-11-21T08:03:59;101164.91;;;10.10;100.00
16580;BME280;8402;51.466;6.806;2023-11-21T08:06:31;101172.44;;;10.13;100.00
16580;BME280;8402;51.466;6.806;2023-11-21T08:09:01;101179.69;;;10.18;100.00
16580;BME280;8402;51.466;6.806;2023-11-21T08:11:34;101183.19;;;10.18;100.00
16580;BME280;8402;51.466;6.806;2023-11-21T08:14:06;101182.09;;;10.19;100.00
16580;BME280;8402;51.466;6.806;2023-11-21T08:16:35;101191.28;;;10.24;100.00
16580;BME280;8402;51.466;6.806;2023-11-21T08:19:06;101194.97;;;10.28;100.00
16580;BME280;8402;51.466;6.806;2023-11-21T08:21:36;101197.69;;;10.28;100.00
16580;BME280;8402;51.466;6.806;2023-11-21T08:24:08;101203.13;;;10.28;100.00
16580;BME280;8402;51.466;6.806;2023-11-21T08:26:40;101206.94;;;10.27;100.00
16580;BME280;8402;51.466;6.806;2023-11-21T08:29:10;101209.06;;;10.30;100.00
16580;BME280;8402;51.466;6.806;2023-11-21T08:31:40;101213.06;;;10.32;100.00
16580;BME280;8402;51.466;6.806;2023-11-21T08:34:11;101215.16;;;10.35;100.00
16580;BME280;8402;51.466;6.806;2023-11-21T08:36:42;101217.59;;;10.37;100.00
16580;BME280;8402;51.466;6.806;2023-11-21T08:39:12;101209.97;;;10.39;100.00
16580;BME280;8402;51.466;6.806;2023-11-21T08:41:48;101209.97;;;10.39;100.00
16580;BME280;8402;51.466;6.806;2023-11-21T08:44:18;101219.41;;;10.41;100.00
16580;BME280;8402;51.466;6.806;2023-11-21T08:46:50;101220.41;;;10.45;100.00
16580;BME280;8402;51.466;6.806;2023-11-21T08:49:20;101224.44;;;10.48;100.00
16580;BME280;8402;51.466;6.806;2023-11-21T08:51:50;101218.41;;;10.51;100.00
16580;BME280;8402;51.466;6.806;2023-11-21T08:54:22;101230.25;;;10.55;100.00
16580;BME280;8402;51.466;6.806;2023-11-21T08:56:55;101230.25;;;10.55;100.00
16580;BME280;8402;51.466;6.806;2023-11-21T08:59:25;101233.47;;;10.57;100.00
16580;BME280;8402;51.466;6.806;2023-11-21T09:01:55;101240.41;;;10.63;100.00
16580;BME280;8402;51.466;6.806;2023-11-21T09:04:25;101244.13;;;10.67;100.00
16580;BME280;8402;51.466;6.806;2023-11-21T09:06:55;101258.19;;;10.69;100.00
16580;BME280;8402;51.466;6.806;2023-11-21T09:09:27;101252.19;;;10.72;100.00
16580;BME280;8402;51.466;6.806;2023-11-21T09:11:59;101248.84;;;10.75;100.00
16580;BME280;8402;51.466;6.806;2023-11-21T09:14:29;101254.78;;;10.78;100.00
16580;BME280;8402;51.466;6.806;2023-11-21T09:16:59;101252.28;;;10.81;100.00
16580;BME280;8402;51.466;6.806;2023-11-21T09:19:29;101264.44;;;10.84;100.00
16580;BME280;8402;51.466;6.806;2023-11-21T09:21:59;101270.88;;;10.88;100.00
16580;BME280;8402;51.466;6.806;2023-11-21T09:24:29;101279.50;;;10.90;100.00
16580;BME280;8402;51.466;6.806;2023-11-21T09:27:02;101274.56;;;10.92;100.00
16580;BME280;8402;51.466;6.806;2023-11-21T09:29:32;101275.09;;;10.94;100.00
16580;BME280;8402;51.466;6.806;2023-11-21T09:32:03;101277.00;;;10.93;100.00
16580;BME280;8402;51.466;6.806;2023-11-21T09:34:33;101282.44;;;10.93;100.00
16580;BME280;8402;51.466;6.806;2023-11-21T09:37:05;101281.31;;;10.94;100.00
16580;BME280;8402;51.466;6.806;2023-11-21T09:39:36;101281.50;;;10.98;100.00
16580;BME280;8402;51.466;6.806;2023-11-21T09:42:11;101284.72;;;11.00;100.00
16580;BME280;8402;51.466;6.806;2023-11-21T09:44:46;101287.16;;;11.01;100.00
16580;BME280;8402;51.466;6.806;2023-11-21T09:47:18;101291.16;;;11.04;100.00
16580;BME280;8402;51.466;6.806;2023-11-21T09:49:49;101286.84;;;11.03;100.00
16580;BME280;8402;51.466;6.806;2023-11-21T09:52:25;101299.81;;;11.06;100.00
16580;BME280;8402;51.466;6.806;2023-11-21T09:54:55;101299.81;;;11.06;100.00
16580;BME280;8402;51.466;6.806;2023-11-21T09:57:30;101299.53;;;11.08;100.00
16580;BME280;8402;51.466;6.806;2023-11-21T10:00:01;101311.69;;;11.10;100.00
16580;BME280;8402;51.466;6.806;2023-11-21T10:02:39;101305.34;;;11.15;100.00
16580;BME280;8402;51.466;6.806;2023-11-21T10:05:09;101304.41;;;11.19;100.00
16580;BME280;8402;51.466;6.806;2023-11-21T10:07:40;101307.03;;;11.24;100.00
16580;BME280;8402;51.466;6.806;2023-11-21T10:10:12;101299.88;;;11.28;100.00
16580;BME280;8402;51.466;6.806;2023-11-21T10:12:49;101308.53;;;11.30;100.00
16580;BME280;8402;51.466;6.806;2023-11-21T10:15:22;101305.19;;;11.34;100.00
16580;BME280;8402;51.466;6.806;2023-11-21T10:17:53;101306.81;;;11.35;100.00
16580;BME280;8402;51.466;6.806;2023-11-21T10:20:24;101316.56;;;11.36;100.00
16580;BME280;8402;51.466;6.806;2023-11-21T10:22:56;101314.69;;;11.36;100.00
16580;BME280;8402;51.466;6.806;2023-11-21T10:25:26;101329.06;;;11.37;100.00
16580;BME280;8402;51.466;6.806;2023-11-21T10:28:02;101325.22;;;11.38;100.00
16580;BME280;8402;51.466;6.806;2023-11-21T10:30:34;101315.34;;;11.42;100.00
16580;BME280;8402;51.466;6.806;2023-11-21T10:33:06;101313.63;;;11.46;100.00
16580;BME280;8402;51.466;6.806;2023-11-21T10:35:45;101318.44;;;11.49;100.00
16580;BME280;8402;51.466;6.806;2023-11-21T10:38:18;101321.84;;;11.54;100.00
16580;BME280;8402;51.466;6.806;2023-11-21T10:40:50;101320.63;;;11.61;100.00
16580;BME280;8402;51.466;6.806;2023-11-21T10:43:27;101328.47;;;11.62;100.00
16580;BME280;8402;51.466;6.806;2023-11-21T10:45:58;101331.69;;;11.64;100.00
16580;BME280;8402;51.466;6.806;2023-11-21T10:48:31;101326.47;;;11.68;100.00
16580;BME280;8402;51.466;6.806;2023-11-21T10:51:06;101331.91;;;11.68;100.00
16580;BME280;8402;51.466;6.806;2023-11-21T10:53:40;101336.22;;;11.69;100.00
16580;BME280;8402;51.466;6.806;2023-11-21T10:56:14;101341.53;;;11.74;100.00
16580;BME280;8402;51.466;6.806;2023-11-21T10:58:49;101340.75;;;11.73;100.00
16580;BME280;8402;51.466;6.806;2023-11-21T11:01:20;101342.34;;;11.74;100.00
16580;BME280;8402;51.466;6.806;2023-11-21T11:03:52;101342.94;;;11.71;100.00
16580;BME280;8402;51.466;6.806;2023-11-21T11:06:25;101355.25;;;11.69;100.00
16580;BME280;8402;51.466;6.806;2023-11-21T11:08:56;101350.44;;;11.66;100.00
16580;BME280;8402;51.466;6.806;2023-11-21T11:11:28;101355.06;;;11.65;100.00
16580;BME280;8402;51.466;6.806;2023-11-21T11:14:02;101353.81;;;11.71;100.00
16580;BME280;8402;51.466;6.806;2023-11-21T11:16:33;101358.03;;;11.77;100.00
16580;BME280;8402;51.466;6.806;2023-11-21T11:19:04;101358.28;;;11.81;100.00
16580;BME280;8402;51.466;6.806;2023-11-21T11:21:44;101355.03;;;11.79;100.00
16580;BME280;8402;51.466;6.806;2023-11-21T11:24:40;101354.03;;;11.75;100.00
16580;BME280;8402;51.466;6.806;2023-11-21T11:27:23;101356.44;;;11.76;100.00
16580;BME280;8402;51.466;6.806;2023-11-21T11:30:09;101359.63;;;11.78;100.00
16580;BME280;8402;51.466;6.806;2023-11-21T11:32:50;101356.34;;;11.81;100.00
16580;BME280;8402;51.466;6.806;2023-11-21T11:35:29;101369.16;;;11.81;100.00
16580;BME280;8402;51.466;6.806;2023-11-21T11:38:01;101368.91;;;11.77;100.00
16580;BME280;8402;51.466;6.806;2023-11-21T11:40:41;101370.03;;;11.76;100.00
16580;BME280;8402;51.466;6.806;2023-11-21T11:43:11;101372.66;;;11.81;100.00
16580;BME280;8402;51.466;6.806;2023-11-21T11:45:45;101367.72;;;11.83;100.00
16580;BME280;8402;51.466;6.806;2023-11-21T11:48:18;101370.94;;;11.85;100.00
16580;BME280;8402;51.466;6.806;2023-11-21T11:51:04;101376.50;;;11.80;100.00
16580;BME280;8402;51.466;6.806;2023-11-21T11:53:38;101369.31;;;11.84;100.00
16580;BME280;8402;51.466;6.806;2023-11-21T11:56:24;101370.50;;;11.78;100.00
16580;BME280;8402;51.466;6.806;2023-11-21T11:58:57;101379.78;;;11.77;100.00
16580;BME280;8402;51.466;6.806;2023-11-21T12:01:33;101378.66;;;11.78;100.00
16580;BME280;8402;51.466;6.806;2023-11-21T12:04:30;101383.63;;;11.76;100.00
16580;BME280;8402;51.466;6.806;2023-11-21T12:07:07;101380.41;;;11.88;100.00
16580;BME280;8402;51.466;6.806;2023-11-21T12:09:37;101379.97;;;11.95;100.00
16580;BME280;8402;51.466;6.806;2023-11-21T12:12:08;101374.41;;;12.00;100.00
16580;BME280;8402;51.466;6.806;2023-11-21T12:14:38;101376.69;;;12.06;100.00
16580;BME280;8402;51.466;6.806;2023-11-21T12:17:11;101372.06;;;12.07;100.00
16580;BME280;8402;51.466;6.806;2023-11-21T12:19:40;101380.84;;;12.04;100.00
16580;BME280;8402;51.466;6.806;2023-11-21T12:22:11;101379.72;;;12.05;100.00
16580;BME280;8402;51.466;6.806;2023-11-21T12:24:41;101382.22;;;12.15;100.00
16580;BME280;8402;51.466;6.806;2023-11-21T12:27:11;101393.78;;;12.21;100.00
16580;BME280;8402;51.466;6.806;2023-11-21T12:29:41;101401.66;;;12.22;100.00
16580;BME280;8402;51.466;6.806;2023-11-21T12:32:14;101405.97;;;12.23;100.00
16580;BME280;8402;51.466;6.806;2023-11-21T12:34:45;101398.13;;;12.22;100.00
16580;BME280;8402;51.466;6.806;2023-11-21T12:37:16;101407.81;;;12.14;100.00
16580;BME280;8402;51.466;6.806;2023-11-21T12:39:46;101409.16;;;12.03;100.00
16580;BME280;8402;51.466;6.806;2023-11-21T12:42:16;101409.75;;;12.00;100.00
16580;BME280;8402;51.466;6.806;2023-11-21T12:44:48;101413.91;;;11.97;100.00
16580;BME280;8402;51.466;6.806;2023-11-21T12:47:20;101415.94;;;11.92;100.00
16580;BME280;8402;51.466;6.806;2023-11-21T12:49:52;101420.25;;;11.93;100.00
16580;BME280;8402;51.466;6.806;2023-11-21T12:52:23;101425.41;;;11.94;100.00
16580;BME280;8402;51.466;6.806;2023-11-21T12:54:53;101427.94;;;11.91;100.00
16580;BME280;8402;51.466;6.806;2023-11-21T12:57:25;101430.75;;;11.85;100.00
16580;BME280;8402;51.466;6.806;2023-11-21T12:59:57;101441.84;;;11.89;100.00
16580;BME280;8402;51.466;6.806;2023-11-21T13:02:30;101434.97;;;11.92;100.00
16580;BME280;8402;51.466;6.806;2023-11-21T13:05:02;101439.81;;;11.95;100.00
16580;BME280;8402;51.466;6.806;2023-11-21T13:07:41;101439.91;;;11.76;100.00
16580;BME280;8402;51.466;6.806;2023-11-21T13:10:14;101446.09;;;11.81;100.00
16580;BME280;8402;51.466;6.806;2023-11-21T13:12:44;101443.44;;;11.76;100.00
16580;BME280;8402;51.466;6.806;2023-11-21T13:15:15;101444.06;;;11.73;100.00
16580;BME280;8402;51.466;6.806;2023-11-21T13:17:48;101453.13;;;11.69;100.00